Time;durP1;ratioP1;P1;durP2;ratioP2;P2;SDS_P1;SDS_P2;PMS_P1;PMS_P2;Temp;Humidity;BMP_temperature;BMP_pressure;BME280_temperature;BME280_humidity;BME280_pressure;Samples;Min_cycle;Max_cycle;Signal;HPM_P1;HPM_P2
2021/11/07 00:05:31;;;;;;;73.63;36.60;;;;;;;15.98;79.31;100761.81;5051601;28;20412;-51
2021/11/07 00:08:17;;;;;;;74.85;35.83;;;;;;;16.25;78.61;100753.59;5051254;28;20037;-49
2021/11/07 00:10:47;;;;;;;76.85;34.42;;;;;;;15.50;81.61;100750.59;5051223;28;20029;-51
2021/11/07 00:13:24;;;;;;;;;;;;;;;15.38;82.12;100758.47;5052020;28;20459;-48
2021/11/07 00:15:49;;;;;;;71.28;34.40;;;;;;;15.67;81.04;100757.16;5051061;28;20003;-50
2021/11/07 00:18:19;;;;;;;76.15;35.92;;;;;;;15.63;81.04;100754.09;5049759;28;20115;-49
2021/11/07 00:20:51;;;;;;;75.75;35.55;;;;;;;15.95;79.82;100762.22;5050955;28;20032;-50
2021/11/07 00:25:46;;;;;;;77.05;34.85;;;;;;;15.85;80.55;100753.00;5051001;28;20066;-49
2021/11/07 00:28:22;;;;;;;75.93;36.63;;;;;;;15.85;79.99;100758.38;5050867;28;20044;-50
2021/11/07 00:31:37;;;;;;;74.32;36.65;;;;;;;16.03;79.15;100755.81;5050673;28;20031;-48
2021/11/07 00:44:10;;;;;;;78.00;36.78;;;;;;;16.06;78.38;100749.16;5050404;28;20032;-49
2021/11/07 00:49:23;;;;;;;72.22;34.63;;;;;;;15.91;80.01;100760.19;5050086;28;20388;-50
2021/11/07 00:56:59;;;;;;;72.78;35.75;;;;;;;16.40;77.67;100754.09;5050448;28;20043;-48
2021/11/07 01:02:15;;;;;;;72.28;36.13;;;;;;;16.54;77.02;100752.13;5050192;28;20035;-48
2021/11/07 01:04:45;;;;;;;74.95;36.10;;;;;;;16.90;75.15;100756.03;5050455;28;20029;-52
2021/11/07 01:07:10;;;;;;;74.78;37.08;;;;;;;16.59;76.45;100751.50;5049283;28;20037;-48
2021/11/07 01:09:36;;;;;;;74.78;36.70;;;;;;;16.44;77.20;100751.81;5050011;28;20082;-48
2021/11/07 01:12:01;;;;;;;80.38;35.80;;;;;;;16.61;75.77;100752.91;5049989;28;20480;-50
2021/11/07 01:14:27;;;;;;;73.00;35.53;;;;;;;16.23;78.17;100755.69;5049939;28;20028;-50
2021/11/07 01:16:52;;;;;;;72.05;36.28;;;;;;;16.34;77.15;100746.94;5049930;28;20033;-48
2021/11/07 01:19:18;;;;;;;70.45;35.20;;;;;;;16.55;76.43;100748.44;5050402;28;20041;-50
2021/11/07 01:21:45;;;;;;;73.10;34.95;;;;;;;16.63;75.88;100750.03;5049821;28;20473;-48
2021/11/07 01:24:25;;;;;;;76.40;35.97;;;;;;;16.68;75.35;100741.28;5049939;28;20029;-49
2021/11/07 01:26:55;;;;;;;68.80;34.83;;;;;;;16.41;76.76;100747.72;5049665;28;20044;-49
2021/11/07 01:29:26;;;;;;;68.70;33.92;;;;;;;15.91;78.24;100752.13;5049842;28;20290;-47
2021/11/07 01:31:53;;;;;;;71.03;34.83;;;;;;;15.74;79.64;100747.25;5049462;28;20142;-47
2021/11/07 01:34:45;;;;;;;65.55;32.70;;;;;;;15.93;78.39;100740.13;5049189;28;20535;-48
2021/11/07 01:37:17;;;;;;;66.63;31.80;;;;;;;15.76;78.91;100738.97;5049514;28;20039;-48
2021/11/07 01:44:52;;;;;;;55.72;29.50;;;;;;;15.30;81.47;100737.28;5049747;28;20037;-49
2021/11/07 01:47:18;;;;;;;58.17;29.42;;;;;;;15.39;80.98;100739.50;5049749;28;20029;-49
2021/11/07 01:49:44;;;;;;;53.00;28.10;;;;;;;16.05;77.72;100739.47;5049664;28;20087;-49
2021/11/07 01:52:10;;;;;;;55.03;28.58;;;;;;;16.11;77.45;100726.00;5049430;28;20519;-49
2021/11/07 01:57:23;;;;;;;54.85;27.58;;;;;;;16.29;76.42;100732.50;5049957;28;20468;-49
2021/11/07 01:59:51;;;;;;;50.67;25.15;;;;;;;16.03;77.45;100729.78;5049506;28;20035;-49
2021/11/07 02:02:17;;;;;;;51.92;26.65;;;;;;;16.18;76.82;100721.44;5048002;28;20461;-49
2021/11/07 02:04:43;;;;;;;49.00;25.45;;;;;;;16.31;76.08;100725.88;5049477;28;20078;-49
2021/11/07 02:07:09;;;;;;;50.42;26.25;;;;;;;16.60;74.67;100723.56;5049550;28;20044;-49
2021/11/07 02:09:34;;;;;;;51.50;25.33;;;;;;;16.32;75.67;100724.03;5049436;28;20405;-49
2021/11/07 02:12:00;;;;;;;51.22;25.52;;;;;;;16.15;77.22;100716.47;5048389;28;20496;-50
2021/11/07 02:14:25;;;;;;;44.72;25.25;;;;;;;16.26;76.16;100716.81;5049472;28;20045;-50
2021/11/07 02:16:51;;;;;;;52.30;25.52;;;;;;;16.17;77.05;100708.22;5049618;28;20029;-52
2021/11/07 02:19:16;;;;;;;49.63;26.23;;;;;;;16.39;75.54;100712.19;5050676;28;20048;-48
2021/11/07 02:21:46;;;;;;;55.92;25.25;;;;;;;16.53;75.25;100714.78;5053420;28;20585;-48
2021/11/07 02:24:15;;;;;;;50.97;25.75;;;;;;;16.80;74.25;100712.66;5053233;28;20453;-49
2021/11/07 02:26:50;;;;;;;47.80;25.10;;;;;;;16.79;73.57;100706.47;5053665;28;20455;-49
2021/11/07 02:29:16;;;;;;;47.80;24.50;;;;;;;16.59;74.22;100706.63;5052342;28;20035;-51
2021/11/07 02:31:41;;;;;;;49.63;25.08;;;;;;;16.46;74.49;100705.94;5051857;28;20025;-48
2021/11/07 02:34:07;;;;;;;51.88;26.10;;;;;;;16.60;74.06;100710.13;5052952;28;20053;-47
2021/11/07 02:36:32;;;;;;;47.15;25.27;;;;;;;16.86;73.42;100703.75;5053015;28;20480;-48
2021/11/07 02:38:58;;;;;;;43.90;24.20;;;;;;;16.77;73.07;100699.66;5052547;28;20044;-48
2021/11/07 02:41:23;;;;;;;44.38;24.35;;;;;;;16.60;73.74;100696.72;5053942;28;20548;-48
2021/11/07 02:43:51;;;;;;;47.92;25.02;;;;;;;16.48;75.04;100699.28;5053666;28;20036;-50
2021/11/07 02:46:17;;;;;;;44.53;24.25;;;;;;;16.70;74.36;100705.09;5053808;28;20074;-47
2021/11/07 02:48:47;;;;;;;48.40;25.35;;;;;;;16.73;74.11;100696.59;5053409;28;20033;-48
2021/11/07 02:51:12;;;;;;;48.15;24.55;;;;;;;16.61;74.38;100704.56;5053268;28;20095;-48
2021/11/07 02:53:39;;;;;;;55.30;26.02;;;;;;;16.65;74.26;100699.56;5053360;28;20138;-48
2021/11/07 02:56:05;;;;;;;46.83;25.17;;;;;;;16.70;73.73;100699.72;5053369;28;20040;-50
2021/11/07 02:58:31;;;;;;;48.60;25.13;;;;;;;16.60;74.33;100702.09;5053272;28;20033;-49
2021/11/07 03:00:57;;;;;;;48.45;25.60;;;;;;;16.81;73.70;100695.47;5053445;28;20112;-49
2021/11/07 03:03:23;;;;;;;51.97;27.30;;;;;;;16.97;72.84;100703.00;5052974;28;20473;-51
2021/11/07 03:05:48;;;;;;;47.63;26.15;;;;;;;16.95;72.82;100701.59;5053365;28;20420;-50
2021/11/07 03:08:13;;;;;;;49.25;26.42;;;;;;;16.85;72.78;100695.91;5052670;28;20029;-50
2021/11/07 03:10:39;;;;;;;51.83;26.88;;;;;;;16.82;73.22;100697.16;5052426;28;20033;-49
2021/11/07 03:13:07;;;;;;;57.70;27.23;;;;;;;16.89;72.84;100699.81;5052765;28;20473;-49
2021/11/07 03:15:34;;;;;;;49.70;26.67;;;;;;;16.67;73.33;100696.66;5053009;28;20457;-49
2021/11/07 03:18:00;;;;;;;50.88;26.67;;;;;;;16.93;72.63;100698.31;5052451;28;20029;-49
2021/11/07 03:20:25;;;;;;;50.28;26.98;;;;;;;16.89;72.49;100699.81;5052877;28;20032;-49
2021/11/07 03:22:51;;;;;;;52.35;26.85;;;;;;;16.86;72.82;100700.25;5053090;28;20378;-50
2021/11/07 03:25:16;;;;;;;55.90;28.52;;;;;;;17.02;72.55;100704.22;5053215;28;20048;-48
2021/11/07 03:27:44;;;;;;;54.22;27.52;;;;;;;16.89;72.56;100700.63;5052454;28;20096;-48
2021/11/07 03:30:22;;;;;;;56.95;27.58;;;;;;;16.85;73.35;100706.66;5049969;28;20029;-49
2021/11/07 03:32:49;;;;;;;53.15;27.98;;;;;;;17.03;72.03;100705.88;5050371;28;20048;-48
2021/11/07 03:35:18;;;;;;;57.25;29.33;;;;;;;16.94;72.44;100702.63;5051877;28;20033;-50
2021/11/07 03:37:55;;;;;;;57.47;28.85;;;;;;;16.97;72.83;100700.31;5051666;28;20025;-47
2021/11/07 03:40:20;;;;;;;57.00;29.15;;;;;;;16.87;73.24;100694.66;5051554;28;20025;-48
2021/11/07 03:42:46;;;;;;;57.47;30.23;;;;;;;16.96;72.60;100695.16;5052127;28;20035;-48
2021/11/07 03:45:11;;;;;;;57.25;30.17;;;;;;;16.99;72.02;100692.84;5034672;28;20033;-49
2021/11/07 03:47:37;;;;;;;57.70;30.00;;;;;;;17.06;71.75;100698.19;5052566;28;20033;-49
2021/11/07 03:50:04;;;;;;;65.28;29.05;;;;;;;16.76;73.29;100704.22;5052479;28;20051;-50
2021/11/07 03:52:31;;;;;;;65.45;30.70;;;;;;;16.91;73.09;100697.72;5052146;28;20078;-47
2021/11/07 03:54:57;;;;;;;59.13;31.35;;;;;;;16.80;73.46;100699.22;5052317;28;20033;-48
2021/11/07 03:57:22;;;;;;;65.03;32.05;;;;;;;16.45;74.21;100699.75;5052377;28;20428;-47
2021/11/07 03:59:49;;;;;;;63.97;31.25;;;;;;;16.61;74.01;100693.81;5052164;28;20530;-48
2021/11/07 04:02:15;;;;;;;74.13;33.22;;;;;;;16.52;74.57;100695.13;5051809;28;20025;-48
2021/11/07 04:04:41;;;;;;;73.20;32.85;;;;;;;16.53;74.80;100691.41;5052341;28;20357;-48
2021/11/07 04:07:06;;;;;;;68.25;33.78;;;;;;;16.47;75.19;100697.66;5052305;28;20090;-47
2021/11/07 04:09:32;;;;;;;72.05;33.33;;;;;;;16.25;75.77;100691.81;5052187;28;20048;-48
2021/11/07 04:11:59;;;;;;;69.47;33.63;;;;;;;16.48;74.28;100696.59;5052346;28;20465;-49
2021/11/07 04:14:24;;;;;;;73.82;34.10;;;;;;;16.35;75.22;100700.22;5052058;28;20037;-48
2021/11/07 04:16:50;;;;;;;74.35;33.83;;;;;;;16.47;74.73;100697.66;5051934;28;20063;-51
2021/11/07 04:19:15;;;;;;;69.20;33.15;;;;;;;16.30;75.34;100704.63;5051573;28;20040;-49
2021/11/07 04:21:44;;;;;;;69.90;34.10;;;;;;;16.32;75.44;100700.66;5052016;28;20032;-47
2021/11/07 04:24:09;;;;;;;70.70;34.15;;;;;;;16.26;75.79;100692.63;5050592;28;20663;-47
2021/11/07 04:26:35;;;;;;;73.25;34.60;;;;;;;16.32;75.90;100686.41;5051371;28;20040;-47
2021/11/07 04:29:00;;;;;;;73.10;34.92;;;;;;;16.54;75.09;100692.22;5051380;28;20037;-47
2021/11/07 04:31:26;;;;;;;70.35;34.60;;;;;;;16.17;76.67;100698.28;5051190;28;20397;-47
2021/11/07 04:33:51;;;;;;;71.70;34.25;;;;;;;16.31;76.04;100690.94;5051320;28;20056;-47
2021/11/07 04:36:17;;;;;;;74.60;34.47;;;;;;;16.12;76.24;100690.03;5051646;28;20540;-49
2021/11/07 04:38:43;;;;;;;70.85;34.30;;;;;;;15.55;79.17;100695.28;5049899;28;20033;-47
2021/11/07 04:41:16;;;;;;;81.70;36.88;;;;;;;16.00;77.56;100702.53;5050333;28;20066;-48
2021/11/07 04:43:42;;;;;;;75.15;34.30;;;;;;;16.17;76.91;100692.09;5051101;28;20089;-53
2021/11/07 04:46:07;;;;;;;71.97;35.40;;;;;;;16.25;76.29;100691.00;5051308;28;20029;-49
2021/11/07 04:48:33;;;;;;;77.88;35.63;;;;;;;16.41;75.68;100695.81;5051158;28;20029;-48
2021/11/07 04:50:58;;;;;;;74.43;35.70;;;;;;;16.57;75.21;100681.03;5050977;28;20095;-47
2021/11/07 04:53:24;;;;;;;82.72;36.30;;;;;;;16.41;75.58;100691.31;5051263;28;20032;-49
2021/11/07 04:55:50;;;;;;;80.82;35.58;;;;;;;16.20;76.30;100697.88;5051221;28;20052;-48
2021/11/07 04:58:15;;;;;;;79.40;34.65;;;;;;;15.79;78.66;100692.94;5051065;28;20074;-47
2021/11/07 05:00:41;;;;;;;81.53;36.55;;;;;;;16.26;77.01;100692.63;5051139;28;20029;-47
2021/11/07 05:03:07;;;;;;;79.63;36.80;;;;;;;16.20;76.66;100694.34;5050999;28;20021;-48
2021/11/07 05:05:33;;;;;;;106.35;51.35;;;;;;;16.16;76.90;100696.66;5050824;28;20083;-49
2021/11/07 05:07:58;;;;;;;94.40;38.08;;;;;;;16.18;76.72;100705.31;5050801;28;20044;-50
2021/11/07 05:10:25;;;;;;;83.63;36.60;;;;;;;16.22;77.08;100695.78;5050886;28;20059;-48
2021/11/07 05:12:50;;;;;;;89.80;37.00;;;;;;;16.23;76.91;100697.41;5049477;28;20025;-46
2021/11/07 05:15:16;;;;;;;80.95;37.05;;;;;;;16.39;76.04;100696.06;5050750;28;20021;-48
2021/11/07 05:17:42;;;;;;;80.85;36.70;;;;;;;16.44;75.44;100697.28;5050529;28;20028;-48
2021/11/07 05:20:08;;;;;;;80.25;36.65;;;;;;;16.17;77.37;100700.16;5050498;28;20032;-47
2021/11/07 05:22:34;;;;;;;74.85;35.15;;;;;;;16.27;76.49;100694.31;5050528;28;20031;-48
2021/11/07 05:24:59;;;;;;;78.63;35.78;;;;;;;16.38;76.62;100694.41;5050461;28;20017;-48
2021/11/07 05:27:24;;;;;;;82.15;36.05;;;;;;;16.38;76.46;100694.41;5050366;28;20127;-48
2021/11/07 05:29:50;;;;;;;86.53;36.78;;;;;;;16.27;76.58;100700.47;5050338;28;20024;-50
2021/11/07 05:32:15;;;;;;;74.93;35.72;;;;;;;16.19;76.77;100695.38;5050629;28;20017;-48
2021/11/07 05:34:42;;;;;;;81.50;37.05;;;;;;;16.09;77.80;100698.56;5049948;28;20071;-48
2021/11/07 05:37:08;;;;;;;81.35;35.35;;;;;;;16.22;76.61;100697.63;5050555;28;20108;-49
2021/11/07 05:39:34;;;;;;;75.63;34.25;;;;;;;15.83;78.23;100703.03;5050483;28;20021;-48
2021/11/07 05:41:59;;;;;;;80.18;36.17;;;;;;;16.08;77.30;100706.81;5050592;28;20400;-51
2021/11/07 05:44:25;;;;;;;75.40;34.75;;;;;;;16.35;75.75;100704.75;5050692;28;20440;-48
2021/11/07 05:46:50;;;;;;;73.75;34.67;;;;;;;16.47;75.51;100708.41;5050457;28;20028;-49
2021/11/07 05:49:17;;;;;;;77.53;35.03;;;;;;;16.23;76.35;100718.06;5050689;28;20477;-50
2021/11/07 05:51:42;;;;;;;72.00;33.95;;;;;;;16.32;76.77;100705.22;5050302;28;20455;-48
2021/11/07 05:54:08;;;;;;;75.18;34.28;;;;;;;16.40;75.20;100713.81;5049803;28;20507;-49
2021/11/07 05:56:33;;;;;;;66.45;33.13;;;;;;;16.36;75.83;100711.78;5050282;28;20076;-50
2021/11/07 05:58:59;;;;;;;79.78;34.80;;;;;;;16.41;75.13;100710.09;5050559;28;20033;-52
2021/11/07 06:01:24;;;;;;;74.63;33.42;;;;;;;16.03;77.04;100713.66;5050295;28;20049;-54
2021/11/07 06:03:50;;;;;;;76.63;34.78;;;;;;;15.95;77.11;100715.75;5050221;28;20033;-49
2021/11/07 06:06:16;;;;;;;72.32;34.17;;;;;;;16.08;77.40;100717.56;5049980;28;20040;-51
2021/11/07 06:08:42;;;;;;;68.00;33.15;;;;;;;16.23;76.57;100712.72;5050411;28;20081;-48
2021/11/07 06:11:07;;;;;;;67.18;32.03;;;;;;;16.32;75.83;100716.78;5050220;28;20092;-49
2021/11/07 06:13:33;;;;;;;67.47;31.85;;;;;;;16.32;76.28;100715.97;5050247;28;20029;-48
2021/11/07 06:15:59;;;;;;;62.78;32.70;;;;;;;16.33;76.14;100726.47;5050222;28;20051;-48
2021/11/07 06:18:25;;;;;;;67.15;31.25;;;;;;;15.77;77.99;100722.69;5050042;28;20028;-47
2021/11/07 06:20:50;;;;;;;68.63;31.88;;;;;;;16.28;76.14;100730.84;5049686;28;20036;-48
2021/11/07 06:23:16;;;;;;;64.13;30.70;;;;;;;16.50;74.92;100729.44;5049567;28;20083;-49
2021/11/07 06:25:42;;;;;;;73.00;31.30;;;;;;;16.49;74.97;100733.19;5049522;28;20385;-49
2021/11/07 06:28:08;;;;;;;70.45;32.42;;;;;;;16.42;75.40;100722.47;5049779;28;20025;-49
2021/11/07 06:30:34;;;;;;;63.95;31.08;;;;;;;16.66;74.10;100727.25;5049902;28;20186;-51
2021/11/07 06:32:59;;;;;;;66.65;32.70;;;;;;;16.47;74.98;100723.69;5049458;28;20451;-50
2021/11/07 06:35:25;;;;;;;67.78;33.22;;;;;;;16.60;74.95;100723.56;5049815;28;20033;-50
2021/11/07 06:37:51;;;;;;;72.55;32.70;;;;;;;16.53;75.12;100725.50;5049749;28;20465;-51
2021/11/07 06:40:16;;;;;;;67.18;32.20;;;;;;;16.79;74.14;100733.34;5049519;28;20032;-49
2021/11/07 06:42:42;;;;;;;67.85;31.98;;;;;;;16.90;73.19;100728.31;5049595;28;20073;-48
2021/11/07 06:45:08;;;;;;;64.30;31.85;;;;;;;17.17;72.40;100727.03;5049934;28;20032;-49
2021/11/07 06:47:34;;;;;;;63.15;32.65;;;;;;;17.11;72.13;100724.38;5049855;28;20460;-48
2021/11/07 06:49:59;;;;;;;61.75;30.25;;;;;;;17.03;72.75;100722.81;5049513;28;20029;-47
2021/11/07 06:52:25;;;;;;;66.68;32.00;;;;;;;17.12;71.76;100721.47;5049727;28;20028;-47
2021/11/07 06:54:52;;;;;;;66.65;31.35;;;;;;;17.30;71.24;100731.41;5049888;28;20036;-49
2021/11/07 06:57:18;;;;;;;62.30;30.88;;;;;;;17.09;72.46;100727.28;5049233;28;20094;-51
2021/11/07 06:59:43;;;;;;;63.25;30.35;;;;;;;17.04;72.28;100734.38;5049751;28;20101;-51
2021/11/07 07:02:09;;;;;;;58.50;30.67;;;;;;;16.79;74.20;100721.75;5049689;28;20087;-48
2021/11/07 07:04:34;;;;;;;59.03;29.70;;;;;;;16.68;73.88;100730.53;5046066;28;20094;-50
2021/11/07 07:07:00;;;;;;;58.80;29.40;;;;;;;16.64;74.35;100737.41;5051774;28;20465;-48
2021/11/07 07:09:28;;;;;;;118.80;67.55;;;;;;;16.90;73.74;100733.69;5050855;28;20025;-49
2021/11/07 07:12:04;;;;;;;58.58;29.65;;;;;;;16.89;73.75;100734.75;5052276;28;20098;-48
2021/11/07 07:14:40;;;;;;;52.92;28.30;;;;;;;17.36;71.55;100732.38;5046412;28;20104;-48
2021/11/07 07:17:22;;;;;;;56.17;28.73;;;;;;;17.34;70.56;100729.09;5051975;28;20063;-48
2021/11/07 07:35:33;;;;;;;59.78;29.13;;;;;;;17.26;71.49;100727.53;5051738;28;20378;-50
2021/11/07 07:37:58;;;;;;;59.28;29.10;;;;;;;17.28;71.72;100730.00;5051485;28;20465;-49
2021/11/07 07:40:24;;;;;;;55.35;28.00;;;;;;;17.40;70.83;100714.75;5051391;28;20032;-52
2021/11/07 07:42:50;;;;;;;59.60;28.95;;;;;;;17.37;71.51;100720.59;5051217;28;20033;-50
2021/11/07 07:45:16;;;;;;;58.53;28.10;;;;;;;17.52;70.17;100720.22;5051692;28;20036;-52
2021/11/07 07:47:43;;;;;;;59.15;27.67;;;;;;;17.74;69.14;100712.47;5051390;28;20037;-50
2021/11/07 07:50:10;;;;;;;57.22;28.63;;;;;;;17.91;68.47;100708.13;5051100;28;20136;-48
2021/11/07 07:52:36;;;;;;;56.30;27.92;;;;;;;17.65;69.62;100700.38;5051196;28;20025;-48
2021/11/07 07:55:01;;;;;;;58.72;28.27;;;;;;;17.30;70.71;100704.50;5050933;28;20047;-48
2021/11/07 07:57:26;;;;;;;55.38;28.70;;;;;;;17.11;72.37;100706.38;5050998;28;20048;-48
2021/11/07 07:59:52;;;;;;;50.25;26.80;;;;;;;17.44;70.52;100707.91;5051191;28;20098;-52
2021/11/07 08:02:18;;;;;;;54.10;27.10;;;;;;;17.37;71.15;100705.28;5050818;28;20419;-49
2021/11/07 08:04:44;;;;;;;60.33;28.83;;;;;;;16.99;72.99;100700.09;5051020;28;20032;-48
2021/11/07 08:07:09;;;;;;;67.45;31.60;;;;;;;16.79;74.08;100706.47;5050989;28;20033;-50
2021/11/07 08:09:35;;;;;;;58.22;28.52;;;;;;;17.09;72.77;100705.78;5050601;28;20403;-51
2021/11/07 08:12:00;;;;;;;56.45;27.35;;;;;;;16.96;72.68;100705.91;5050868;28;20024;-47
2021/11/07 08:14:26;;;;;;;55.28;26.77;;;;;;;16.86;73.13;100708.31;5050961;28;20550;-51
2021/11/07 08:16:51;;;;;;;50.85;26.35;;;;;;;16.83;72.99;100708.75;5050474;28;20056;-49
2021/11/07 08:19:17;;;;;;;51.38;26.13;;;;;;;16.84;73.11;100708.53;5050637;28;20074;-51
2021/11/07 08:21:43;;;;;;;53.05;27.42;;;;;;;16.98;72.65;100698.44;5049516;28;20423;-51
2021/11/07 08:24:10;;;;;;;53.65;25.88;;;;;;;17.09;71.74;100700.41;5049588;28;20675;-49
2021/11/07 08:26:40;;;;;;;51.25;25.52;;;;;;;17.25;70.74;100699.00;5050024;28;20369;-38
2021/11/07 08:29:07;;;;;;;52.13;24.63;;;;;;;17.26;79.95;100702.50;5050041;28;20057;-38
2021/11/07 08:31:34;;;;;;;44.45;24.38;;;;;;;17.48;70.48;100698.31;5049534;28;20028;-38
2021/11/07 08:34:02;;;;;;;40.97;23.58;;;;;;;17.29;70.13;100704.75;5049363;28;20071;-38
2021/11/07 08:36:37;;;;;;;42.72;23.27;;;;;;;17.30;70.37;100704.50;5049541;28;20052;-38
2021/11/07 08:39:07;;;;;;;44.33;23.55;;;;;;;17.34;70.24;100702.19;5049892;28;20029;-38
2021/11/07 08:41:33;;;;;;;41.55;22.63;;;;;;;17.04;71.14;100702.97;5049817;28;20362;-37
2021/11/07 09:00:25;;;;;;;42.08;24.38;;;;;;;17.84;67.88;100690.38;5048890;28;20070;-49
2021/11/07 09:05:26;;;;;;;42.10;24.67;;;;;;;17.87;67.23;100681.91;5048702;28;20047;-48
2021/11/07 09:10:34;;;;;;;45.38;25.13;;;;;;;17.75;68.41;100676.44;5047619;28;20134;-47
2021/11/07 09:13:01;;;;;;;43.78;24.23;;;;;;;18.03;68.86;100673.19;5048613;28;20040;-47
2021/11/07 09:15:27;;;;;;;39.70;22.67;;;;;;;18.39;70.90;100666.00;5048876;28;20048;-47
2021/11/07 09:17:54;;;;;;;35.28;22.00;;;;;;;18.52;68.06;100654.13;5048656;28;20021;-48
2021/11/07 09:20:27;;;;;;;38.90;21.92;;;;;;;18.84;65.50;100657.34;5048162;28;20049;-48
2021/11/07 09:23:58;;;;;;;37.63;22.65;;;;;;;19.02;63.48;100652.84;5047000;28;20382;-50
2021/11/07 09:28:26;;;;;;;43.40;23.30;;;;;;;18.54;64.44;100638.56;5047572;28;20020;-47
2021/11/07 09:31:03;;;;;;;39.13;22.00;;;;;;;18.31;65.52;100639.38;5047991;28;20116;-47
2021/11/07 09:39:16;;;;;;;38.67;20.95;;;;;;;16.37;71.98;100617.56;5048345;28;20020;-46
2021/11/07 09:41:54;;;;;;;39.55;22.45;;;;;;;16.38;72.67;100608.47;5045889;28;20041;-47
2021/11/07 09:44:22;;;;;;;38.80;21.45;;;;;;;16.27;72.46;100606.50;5048374;28;20563;-49
2021/11/07 09:47:00;;;;;;;38.05;21.92;;;;;;;16.83;71.56;100607.44;5048863;28;20028;-48
2021/11/07 09:49:33;;;;;;;35.45;20.30;;;;;;;16.78;70.11;100601.88;5046353;28;20068;-50
2021/11/07 09:52:14;;;;;;;36.95;20.00;;;;;;;16.59;70.62;100592.97;5046637;28;20453;-39
2021/11/07 09:54:44;;;;;;;31.52;18.05;;;;;;;16.66;70.68;100585.66;5044529;28;20044;-37
2021/11/07 09:57:12;;;;;;;32.63;19.33;;;;;;;16.54;71.07;100582.88;5044294;28;20037;-37
2021/11/07 09:59:38;;;;;;;35.83;20.05;;;;;;;16.54;71.30;100580.19;5047979;28;20039;-38
2021/11/07 10:02:03;;;;;;;30.38;17.63;;;;;;;16.41;70.11;100578.47;5048106;28;20037;-38
2021/11/07 10:04:31;;;;;;;33.72;20.63;;;;;;;16.40;70.38;100567.94;5048573;28;20708;-39
2021/11/07 10:07:17;;;;;;;32.50;17.67;;;;;;;16.69;70.24;100570.97;5048670;28;20017;-38
2021/11/07 10:09:43;;;;;;;32.95;18.60;;;;;;;16.68;70.95;100563.94;5048838;28;20025;-38
2021/11/07 10:12:21;;;;;;;31.67;17.70;;;;;;;17.67;66.11;100561.84;5049073;28;20013;-38
2021/11/07 10:14:56;;;;;;;29.48;17.30;;;;;;;17.12;66.71;100548.56;5047091;28;20091;-38
2021/11/07 10:17:34;;;;;;;33.17;18.25;;;;;;;16.58;70.30;100548.31;5049184;28;20369;-38
2021/11/07 10:20:32;;;;;;;30.98;17.33;;;;;;;17.05;67.47;100545.13;5044750;28;20036;-38
2021/11/07 10:23:07;;;;;;;27.30;16.48;;;;;;;17.08;68.93;100542.00;5045830;28;20025;-38
2021/11/07 10:25:42;;;;;;;30.38;17.15;;;;;;;17.94;67.17;100539.94;5046520;28;20282;-38
2021/11/07 10:28:24;;;;;;;30.80;15.95;;;;;;;17.64;64.92;100542.66;5048939;28;20021;-38
2021/11/07 10:31:17;;;;;;;25.20;15.70;;;;;;;17.45;65.41;100536.50;5049061;28;20028;-45
2021/11/07 10:39:15;;;;;;;29.55;15.90;;;;;;;17.70;64.17;100515.63;5048222;28;20048;-39
2021/11/07 10:47:00;;;;;;;25.58;16.48;;;;;;;17.70;64.90;100501.34;5033403;28;20044;-39
2021/11/07 10:52:19;;;;;;;29.33;17.27;;;;;;;17.11;68.56;100488.56;5039562;28;20027;-39
2021/11/07 10:54:45;;;;;;;29.35;17.42;;;;;;;17.87;66.66;100483.47;5052655;28;20476;-40
2021/11/07 10:57:15;;;;;;;28.45;17.13;;;;;;;17.26;65.60;100480.06;5052893;28;20075;-38
2021/11/07 10:59:40;;;;;;;29.88;18.67;;;;;;;17.10;66.54;100470.81;5052688;28;20074;-49
2021/11/07 11:02:35;;;;;;;32.42;17.60;;;;;;;17.58;65.49;100461.78;5052420;28;20025;-48
2021/11/07 11:05:02;;;;;;;27.80;17.27;;;;;;;17.79;63.70;100457.69;5052167;28;20029;-47
2021/11/07 11:07:30;;;;;;;31.55;17.55;;;;;;;16.92;66.88;100454.72;5052663;28;20618;-47
2021/11/07 11:10:12;;;;;;;30.35;17.80;;;;;;;17.04;66.53;100422.47;5053405;28;20076;-47
2021/11/07 11:13:14;;;;;;;29.63;16.75;;;;;;;17.38;66.13;100445.13;5053135;28;20100;-47
2021/11/07 11:15:49;;;;;;;32.15;17.45;;;;;;;17.20;65.63;100440.66;5052745;28;20025;-48
2021/11/07 11:23:49;;;;;;;26.23;16.45;;;;;;;17.27;64.95;100427.94;5032298;28;19920;-48
2021/11/07 11:26:24;;;;;;;34.28;18.17;;;;;;;17.29;65.88;100420.44;5032268;28;20038;-48
2021/11/07 11:29:03;;;;;;;30.92;17.65;;;;;;;18.01;63.42;100418.63;5031209;28;20033;-48
2021/11/07 11:34:22;;;;;;;32.67;20.27;;;;;;;17.25;67.07;100408.53;5040788;28;20525;-49
2021/11/07 11:36:57;;;;;;;30.02;19.13;;;;;;;17.50;65.65;100410.19;5052281;28;20062;-48
2021/11/07 11:39:28;;;;;;;28.85;18.75;;;;;;;17.26;65.64;100404.75;5049856;28;20112;-48
2021/11/07 11:42:13;;;;;;;29.92;20.10;;;;;;;17.07;66.91;100401.34;5048698;28;20460;-47
2021/11/07 11:44:40;;;;;;;37.40;20.02;;;;;;;17.32;66.80;100408.41;5048682;28;20404;-48
2021/11/07 11:55:58;;;;;;;35.25;21.67;;;;;;;17.05;67.02;100391.88;5048953;28;20091;-48
2021/11/07 11:58:38;;;;;;;35.92;22.98;;;;;;;16.89;68.35;100386.09;5034042;28;20141;-47
2021/11/07 12:01:11;;;;;;;37.80;22.85;;;;;;;17.72;65.38;100378.13;5051721;28;20036;-47
2021/11/07 12:12:20;;;;;;;36.00;22.73;;;;;;;17.23;65.65;100369.44;5051531;28;20039;-46
2021/11/07 12:14:57;;;;;;;32.90;22.20;;;;;;;17.16;66.95;100362.31;5051950;28;20029;-49
2021/11/07 12:17:37;;;;;;;32.60;20.58;;;;;;;17.49;66.00;100352.84;5050654;28;20448;-48
2021/11/07 12:20:20;;;;;;;31.73;20.60;;;;;;;17.15;66.53;100351.78;5051613;28;20052;-48
2021/11/07 12:22:46;;;;;;;34.55;21.98;;;;;;;16.90;69.96;100347.41;5051316;28;20029;-48
2021/11/07 12:25:13;;;;;;;33.50;22.02;;;;;;;17.51;67.10;100353.44;5051539;28;20060;-48
2021/11/07 12:27:43;;;;;;;33.17;21.73;;;;;;;17.03;67.71;100342.88;5051616;28;20029;-48
2021/11/07 12:30:15;;;;;;;36.70;22.23;;;;;;;16.76;68.80;100345.97;5049438;28;20038;-49
2021/11/07 12:32:42;;;;;;;33.40;21.90;;;;;;;17.37;66.18;100341.28;5048782;28;20477;-47
2021/11/07 12:35:34;;;;;;;35.08;21.75;;;;;;;17.29;66.11;100341.63;5050859;28;20550;-47
2021/11/07 12:41:04;;;;;;;41.90;24.67;;;;;;;17.95;64.85;100332.38;5050313;28;20514;-47
2021/11/07 12:43:36;;;;;;;39.40;23.50;;;;;;;17.46;65.30;100329.13;5050876;28;20043;-47
2021/11/07 12:49:16;;;;;;;74.63;44.92;;;;;;;17.72;65.51;100333.16;5049316;28;20059;-47
2021/11/07 12:51:44;;;;;;;47.63;29.92;;;;;;;17.18;66.43;100327.94;5050364;28;20052;-48
2021/11/07 12:54:14;;;;;;;40.35;22.95;;;;;;;16.70;69.38;100317.31;5050969;28;20067;-49
2021/11/07 12:56:43;;;;;;;37.00;23.13;;;;;;;17.31;67.12;100321.50;5050511;28;20028;-50
2021/11/07 12:59:10;;;;;;;39.20;22.92;;;;;;;17.09;67.61;100317.75;5049161;28;20033;-49
2021/11/07 13:02:08;;;;;;;40.85;23.92;;;;;;;17.03;67.99;100316.00;5050222;28;20025;-49
2021/11/07 13:04:51;;;;;;;38.95;24.85;;;;;;;17.82;65.87;100316.44;5049855;28;20037;-49
2021/11/07 13:07:45;;;;;;;38.30;23.67;;;;;;;17.78;64.40;100313.41;5049982;28;20096;-48
2021/11/07 13:11:00;;;;;;;38.88;23.50;;;;;;;17.42;65.91;100309.13;5050905;28;20047;-50
2021/11/07 13:13:37;;;;;;;40.88;23.88;;;;;;;18.01;64.43;100309.06;5047938;28;20036;-48
2021/11/07 13:16:33;;;;;;;42.35;24.58;;;;;;;17.46;65.82;100304.06;5047934;28;20060;-48
2021/11/07 13:22:49;;;;;;;37.90;22.90;;;;;;;17.84;66.56;100302.72;5067754;28;20098;-46
2021/11/07 13:25:43;;;;;;;37.03;22.70;;;;;;;17.28;66.32;100305.84;5067808;28;20574;-48
2021/11/07 13:28:18;;;;;;;38.20;23.50;;;;;;;17.33;67.54;100302.47;5051090;28;20520;-47
2021/11/07 13:31:08;;;;;;;39.92;22.73;;;;;;;17.66;65.85;100311.78;5050122;28;20456;-48